Upernavik, Greenland
Current Conditions -  °F | °C
As of 12:33 AM on Thursday 18 Dec 2014 (Local Time) from CYCY Reporting Station
Haze Haze  
Wind Chill: -35°   Ceiling: 4700
Heat Index: -9°   Visibility: 3mi
Dew Point: -15°   Wind: 21mph
Humidity: 77%   Direction: 300°WNW
Pressure: 29.76"   Gusts: NA
Location:  72.79°N, 56.15°W
Report Text: CYCY 180233Z AUTO 30018KT 3SM HZ OVC047 M23/M26 A2976 RMK SLP080
Loading
Personal Weather Stations






























Interactive Weather Map New forecast layout! Learn more

10-Day Weather Forecast

Advertisements
Track Severe Weather on mobile